createdAt,value
2022-09-05T00:00:17.932Z,100.00
2022-09-05T00:02:56.260Z,100.00
2022-09-05T00:06:03.189Z,100.00
2022-09-05T00:08:34.326Z,100.00
2022-09-05T00:11:42.751Z,100.00
2022-09-05T00:15:15.373Z,100.00
2022-09-05T00:21:36.796Z,100.00
2022-09-05T00:24:30.374Z,100.00
2022-09-05T00:25:06.815Z,100.00
2022-09-05T00:28:25.219Z,100.00
2022-09-05T00:31:55.599Z,100.00
2022-09-05T00:34:56.751Z,100.00
2022-09-05T00:37:45.522Z,100.00
2022-09-05T00:40:29.751Z,100.00
2022-09-05T00:43:24.505Z,100.00
2022-09-05T00:46:07.600Z,100.00
2022-09-05T00:49:21.924Z,100.00
2022-09-05T00:52:27.682Z,100.00
2022-09-05T00:55:38.167Z,100.00
2022-09-05T00:58:57.819Z,100.00
2022-09-05T01:01:43.616Z,100.00
2022-09-05T01:04:40.031Z,100.00
2022-09-05T01:07:57.241Z,100.00
2022-09-05T01:11:17.437Z,100.00
2022-09-05T01:14:17.327Z,100.00
2022-09-05T01:17:11.429Z,100.00
2022-09-05T01:20:19.592Z,100.00
2022-09-05T01:23:39.977Z,100.00
2022-09-05T01:26:37.032Z,100.00
2022-09-05T01:29:45.475Z,100.00
2022-09-05T01:32:32.810Z,100.00
2022-09-05T01:35:28.643Z,100.00
2022-09-05T01:38:33.784Z,100.00
2022-09-05T01:41:48.480Z,100.00
2022-09-05T01:44:57.914Z,100.00
2022-09-05T01:48:05.174Z,100.00
2022-09-05T01:51:28.852Z,100.00
2022-09-05T01:54:27.003Z,100.00
2022-09-05T01:57:43.516Z,100.00
2022-09-05T02:00:14.813Z,100.00
2022-09-05T02:03:14.610Z,100.00
2022-09-05T02:06:29.199Z,100.00
2022-09-05T02:09:30.471Z,100.00
2022-09-05T02:12:02.367Z,100.00
2022-09-05T02:15:05.003Z,100.00
2022-09-05T02:17:51.090Z,100.00
2022-09-05T02:20:30.773Z,100.00
2022-09-05T02:23:27.350Z,100.00
2022-09-05T02:26:18.963Z,100.00
2022-09-05T02:28:48.880Z,100.00
2022-09-05T02:31:39.711Z,100.00
2022-09-05T02:34:51.043Z,100.00
2022-09-05T02:38:30.152Z,100.00
2022-09-05T02:45:02.309Z,100.00
2022-09-05T02:45:16.588Z,100.00
2022-09-05T02:47:03.367Z,100.00
2022-09-05T02:57:20.241Z,100.00
2022-09-05T02:57:28.021Z,100.00
2022-09-05T02:57:36.861Z,100.00
2022-09-05T02:59:36.587Z,100.00
2022-09-05T03:02:25.266Z,100.00
2022-09-05T03:05:09.391Z,100.00
2022-09-05T03:08:08.019Z,100.00
2022-09-05T03:10:56.389Z,100.00
2022-09-05T03:14:20.644Z,100.00
2022-09-05T03:17:46.063Z,100.00
2022-09-05T03:20:41.986Z,100.00
2022-09-05T03:23:46.184Z,100.00
2022-09-05T03:26:48.151Z,100.00
2022-09-05T03:30:02.207Z,100.00
2022-09-05T03:32:42.195Z,100.00
2022-09-05T03:35:47.612Z,100.00
2022-09-05T03:38:55.182Z,100.00
2022-09-05T03:41:55.369Z,100.00
2022-09-05T03:44:51.011Z,100.00
2022-09-05T03:47:45.938Z,100.00
2022-09-05T03:57:05.714Z,100.00
2022-09-05T03:57:10.633Z,100.00
2022-09-05T03:57:41.746Z,100.00
2022-09-05T04:00:24.039Z,100.00
2022-09-05T04:08:07.559Z,100.00
2022-09-05T04:08:15.463Z,100.00
2022-09-05T04:09:49.410Z,100.00
2022-09-05T04:12:25.026Z,100.00
2022-09-05T04:15:00.287Z,100.00
2022-09-05T04:17:41.053Z,100.00
2022-09-05T04:20:37.291Z,100.00
2022-09-05T04:23:25.746Z,100.00
2022-09-05T04:26:11.598Z,100.00
2022-09-05T04:29:36.543Z,100.00
2022-09-05T04:32:24.048Z,100.00
2022-09-05T04:35:21.817Z,100.00
2022-09-05T04:37:55.255Z,100.00
2022-09-05T04:40:38.589Z,100.00
2022-09-05T04:43:27.861Z,100.00
2022-09-05T04:46:09.426Z,100.00
2022-09-05T04:49:07.182Z,100.00
2022-09-05T04:52:00.800Z,100.00
2022-09-05T04:54:47.165Z,100.00
2022-09-05T04:57:24.525Z,100.00
2022-09-05T05:05:46.351Z,100.00
2022-09-05T05:06:02.110Z,100.00
2022-09-05T05:06:13.900Z,100.00
2022-09-05T05:09:06.439Z,100.00
2022-09-05T05:17:59.666Z,100.00
2022-09-05T05:18:12.507Z,100.00
2022-09-05T05:18:38.774Z,100.00
2022-09-05T05:21:28.630Z,100.00
2022-09-05T05:23:58.246Z,100.00
2022-09-05T05:26:56.890Z,100.00
2022-09-05T05:29:38.608Z,100.00
2022-09-05T05:32:07.816Z,100.00
2022-09-05T05:34:47.628Z,100.00
2022-09-05T05:37:24.125Z,100.00
2022-09-05T05:40:09.824Z,100.00
2022-09-05T05:42:41.303Z,100.00
2022-09-05T05:45:32.183Z,100.00
2022-09-05T05:48:39.589Z,100.00
2022-09-05T05:51:34.568Z,100.00
2022-09-05T05:55:33.989Z,100.00
2022-09-05T05:58:35.813Z,100.00
2022-09-05T06:01:30.266Z,100.00
2022-09-05T06:04:49.125Z,100.00
2022-09-05T06:11:18.108Z,100.00
2022-09-05T06:14:51.958Z,100.00
2022-09-05T06:15:00.481Z,100.00
2022-09-05T06:17:28.429Z,100.00
2022-09-05T06:22:10.741Z,100.00
2022-09-05T06:24:05.607Z,100.00
2022-09-05T06:27:09.756Z,100.00
2022-09-05T06:29:55.879Z,100.00
2022-09-05T06:32:58.196Z,100.00
2022-09-05T06:36:01.206Z,100.00
2022-09-05T06:38:58.343Z,100.00
2022-09-05T06:41:48.921Z,100.00
2022-09-05T06:44:26.235Z,100.00
2022-09-05T06:47:23.269Z,100.00
2022-09-05T06:50:27.493Z,100.00
2022-09-05T06:53:47.538Z,100.00
2022-09-05T06:56:56.151Z,100.00
2022-09-05T07:00:03.654Z,100.00
2022-09-05T07:03:33.268Z,100.00
2022-09-05T07:06:19.588Z,100.00
2022-09-05T07:09:23.558Z,100.00
2022-09-05T07:12:30.175Z,100.00
2022-09-05T07:15:16.187Z,100.00
2022-09-05T07:18:37.794Z,100.00
2022-09-05T07:21:35.250Z,100.00
2022-09-05T07:24:53.825Z,100.00
2022-09-05T07:27:09.044Z,100.00
2022-09-05T07:29:53.288Z,100.00
2022-09-05T07:32:33.122Z,100.00
2022-09-05T07:35:03.699Z,100.00
2022-09-05T07:37:41.820Z,100.00
2022-09-05T07:40:26.007Z,100.00
2022-09-05T07:43:09.509Z,100.00
2022-09-05T07:45:55.490Z,100.00
2022-09-05T07:48:35.202Z,100.00
2022-09-05T07:55:45.060Z,99.59
2022-09-05T07:57:00.269Z,99.89
2022-09-05T07:59:48.177Z,97.78
2022-09-05T08:02:15.376Z,97.75
2022-09-05T08:04:42.587Z,97.10
2022-09-05T08:07:49.635Z,92.53
2022-09-05T08:11:22.423Z,95.87
2022-09-05T08:13:46.447Z,93.22
2022-09-05T08:16:20.574Z,91.46
2022-09-05T08:18:58.547Z,92.79
2022-09-05T08:21:41.954Z,92.89
2022-09-05T08:24:27.399Z,93.15
2022-09-05T08:27:16.040Z,91.50
2022-09-05T08:30:24.875Z,89.93
2022-09-05T08:33:10.844Z,90.45
2022-09-05T08:36:02.427Z,89.56
2022-09-05T08:38:40.713Z,88.95
2022-09-05T08:41:56.120Z,89.96
2022-09-05T08:46:39.337Z,87.99
2022-09-05T08:48:18.495Z,85.42
2022-09-05T08:51:18.323Z,84.30
2022-09-05T08:54:25.630Z,84.88
2022-09-05T08:57:19.149Z,81.66
2022-09-05T09:00:19.627Z,83.14
2022-09-05T09:03:18.516Z,83.83
2022-09-05T09:06:23.327Z,81.10
2022-09-05T09:09:11.486Z,81.95
2022-09-05T09:11:57.214Z,82.82
2022-09-05T09:14:35.450Z,80.72
2022-09-05T09:17:42.923Z,77.79
2022-09-05T09:20:36.541Z,75.81
2022-09-05T09:23:06.175Z,77.28
2022-09-05T09:25:44.376Z,76.81
2022-09-05T09:29:02.359Z,76.18
2022-09-05T09:31:56.543Z,77.00
2022-09-05T09:34:29.264Z,75.64
2022-09-05T09:37:15.014Z,77.86
2022-09-05T09:40:22.434Z,76.24
2022-09-05T09:43:06.809Z,77.47
2022-09-05T09:46:00.278Z,73.20
2022-09-05T09:48:54.983Z,70.43
2022-09-05T09:51:52.419Z,72.21
2022-09-05T09:55:20.970Z,72.95
2022-09-05T09:58:31.442Z,72.49
2022-09-05T10:01:35.102Z,70.47
2022-09-05T10:10:38.413Z,70.19
2022-09-05T10:10:43.932Z,69.05
2022-09-05T10:11:55.830Z,70.10
2022-09-05T10:14:53.851Z,70.51
2022-09-05T10:17:42.202Z,70.29
2022-09-05T10:21:15.679Z,68.83
2022-09-05T10:23:52.896Z,71.17
2022-09-05T10:26:44.474Z,69.55
2022-09-05T10:29:39.599Z,69.68
2022-09-05T10:34:45.936Z,70.70
2022-09-05T10:35:42.032Z,68.16
2022-09-05T10:38:35.870Z,68.61
2022-09-05T10:41:22.594Z,67.19
2022-09-05T10:43:54.546Z,68.92
2022-09-05T10:46:52.735Z,64.57
2022-09-05T10:49:35.399Z,63.84
2022-09-05T10:52:49.883Z,63.73
2022-09-05T10:55:22.102Z,65.22
2022-09-05T10:58:11.527Z,62.04
2022-09-05T11:02:20.563Z,61.18
2022-09-05T11:04:01.468Z,61.38
2022-09-05T11:07:15.461Z,61.08
2022-09-05T11:09:59.631Z,59.78
2022-09-05T11:12:40.194Z,61.89
2022-09-05T11:15:32.103Z,56.62
2022-09-05T11:18:09.885Z,57.28
2022-09-05T11:21:05.277Z,58.35
2022-09-05T11:23:47.565Z,57.62
2022-09-05T11:26:46.757Z,57.96
2022-09-05T11:29:34.919Z,58.33
2022-09-05T11:34:53.060Z,57.98
2022-09-05T11:39:23.993Z,61.15
2022-09-05T11:40:07.645Z,60.08
2022-09-05T11:42:01.005Z,58.71
2022-09-05T11:45:17.342Z,59.29
2022-09-05T11:48:17.749Z,58.73
2022-09-05T11:51:02.211Z,58.98
2022-09-05T11:53:53.791Z,59.11
2022-09-05T11:56:51.864Z,58.16
2022-09-05T12:00:33.526Z,57.19
2022-09-05T12:03:41.474Z,58.20
2022-09-05T12:06:49.779Z,58.61
2022-09-05T12:09:23.719Z,57.66
2022-09-05T12:12:38.807Z,57.84
2022-09-05T12:15:27.567Z,56.43
2022-09-05T12:18:26.897Z,56.51
2022-09-05T12:21:19.463Z,56.69
2022-09-05T12:24:31.228Z,56.65
2022-09-05T12:27:42.868Z,57.21
2022-09-05T12:29:59.920Z,56.24
2022-09-05T12:35:15.594Z,57.01
2022-09-05T12:40:56.293Z,57.07
2022-09-05T12:42:10.389Z,55.97
2022-09-05T12:42:27.924Z,59.86
2022-09-05T12:45:13.449Z,55.38
2022-09-05T12:48:14.538Z,56.83
2022-09-05T12:50:54.694Z,55.72
2022-09-05T12:53:35.208Z,56.53
2022-09-05T12:57:05.164Z,55.14
2022-09-05T13:02:55.408Z,57.14
2022-09-05T13:03:03.379Z,57.79
2022-09-05T13:05:02.723Z,54.65
2022-09-05T13:07:44.036Z,54.56
2022-09-05T13:13:03.954Z,53.36
2022-09-05T13:14:52.747Z,54.11
2022-09-05T13:16:29.411Z,51.74
2022-09-05T13:19:08.639Z,51.84
2022-09-05T13:21:44.601Z,51.65
2022-09-05T13:24:27.498Z,50.73
2022-09-05T13:26:56.151Z,49.44
2022-09-05T13:30:46.972Z,49.93
2022-09-05T13:38:10.165Z,50.14
2022-09-05T13:38:29.241Z,48.96
2022-09-05T13:38:47.748Z,49.16
2022-09-05T13:41:30.263Z,49.18
2022-09-05T13:44:00.191Z,47.87
2022-09-05T13:46:59.067Z,49.31
2022-09-05T13:50:19.964Z,47.58
2022-09-05T13:52:57.313Z,45.62
2022-09-05T13:56:03.613Z,46.99
2022-09-05T13:58:52.431Z,47.00
2022-09-05T14:01:49.837Z,49.44
2022-09-05T14:05:17.755Z,47.35
2022-09-05T14:08:33.659Z,47.62
2022-09-05T14:11:55.492Z,45.42
2022-09-05T14:20:27.536Z,45.45
2022-09-05T14:23:07.467Z,46.87
2022-09-05T14:25:40.171Z,48.91
2022-09-05T14:28:20.721Z,48.05
2022-09-05T14:33:08.102Z,48.30
2022-09-05T14:37:49.608Z,49.75
2022-09-05T14:38:05.753Z,46.99
2022-09-05T14:41:17.756Z,47.65
2022-09-05T14:44:24.674Z,47.52
2022-09-05T14:47:34.959Z,47.87
2022-09-05T14:50:29.269Z,45.22
2022-09-05T14:57:41.376Z,48.14
2022-09-05T15:02:49.861Z,47.74
2022-09-05T15:02:53.001Z,45.54
2022-09-05T15:05:40.656Z,45.87
2022-09-05T15:08:53.758Z,46.62
2022-09-05T15:12:16.316Z,46.78
2022-09-05T15:14:08.307Z,48.25
2022-09-05T15:16:43.340Z,47.28
2022-09-05T15:19:11.703Z,46.82
2022-09-05T15:21:41.454Z,47.38
2022-09-05T15:24:22.767Z,46.56
2022-09-05T15:26:55.531Z,47.16
2022-09-05T15:29:31.094Z,46.81
2022-09-05T15:32:21.609Z,45.71
2022-09-05T15:34:52.433Z,46.73
2022-09-05T15:37:26.880Z,46.23
2022-09-05T15:40:23.232Z,45.53
2022-09-05T15:42:57.585Z,45.21
2022-09-05T15:45:36.626Z,45.08
2022-09-05T15:48:12.811Z,45.72
2022-09-05T15:50:54.321Z,47.20
2022-09-05T15:53:37.888Z,48.16
2022-09-05T15:56:12.503Z,48.74
2022-09-05T15:59:00.848Z,48.45
2022-09-05T16:01:59.650Z,50.69
2022-09-05T16:08:18.362Z,50.76
2022-09-05T16:10:39.843Z,51.72
2022-09-05T16:11:17.653Z,52.08
2022-09-05T16:13:45.850Z,52.84
2022-09-05T16:19:17.118Z,53.72
2022-09-05T16:23:23.409Z,54.37
2022-09-05T16:23:29.524Z,53.86
2022-09-05T16:26:24.900Z,53.07
2022-09-05T16:29:21.402Z,53.34
2022-09-05T16:32:23.149Z,54.59
2022-09-05T16:35:11.073Z,54.50
2022-09-05T16:38:48.511Z,56.78
2022-09-05T16:41:46.808Z,55.80
2022-09-05T16:44:42.218Z,56.54
2022-09-05T16:47:32.425Z,55.45
2022-09-05T16:50:48.119Z,56.01
2022-09-05T16:53:59.993Z,55.15
2022-09-05T16:56:45.606Z,57.07
2022-09-05T16:59:22.108Z,58.37
2022-09-05T17:02:27.530Z,59.32
2022-09-05T17:05:36.116Z,59.96
2022-09-05T17:08:25.502Z,58.71
2022-09-05T17:11:29.390Z,58.73
2022-09-05T17:14:10.578Z,58.74
2022-09-05T17:16:55.352Z,58.13
2022-09-05T17:19:37.472Z,58.12
2022-09-05T17:26:05.893Z,59.79
2022-09-05T17:29:26.224Z,61.90
2022-09-05T17:29:30.888Z,60.30
2022-09-05T17:32:08.210Z,61.85
2022-09-05T17:34:47.459Z,63.78
2022-09-05T17:37:36.647Z,63.48
2022-09-05T17:40:51.417Z,63.78
2022-09-05T17:43:48.077Z,64.96
2022-09-05T17:46:34.342Z,66.62
2022-09-05T17:49:19.733Z,66.52
2022-09-05T17:52:20.286Z,68.06
2022-09-05T17:54:54.402Z,68.03
2022-09-05T17:57:36.378Z,69.65
2022-09-05T18:01:05.871Z,70.63
2022-09-05T18:03:40.842Z,71.68
2022-09-05T18:06:32.774Z,71.82
2022-09-05T18:09:42.143Z,72.19
2022-09-05T18:13:31.772Z,72.31
2022-09-05T18:15:32.741Z,72.02
2022-09-05T18:18:36.768Z,71.41
2022-09-05T18:21:22.177Z,73.73
2022-09-05T18:24:12.598Z,75.45
2022-09-05T18:26:46.187Z,77.96
2022-09-05T18:29:57.975Z,78.32
2022-09-05T18:32:54.173Z,77.69
2022-09-05T18:35:55.537Z,79.03
2022-09-05T18:38:51.067Z,80.76
2022-09-05T18:41:38.574Z,81.39
2022-09-05T18:44:20.235Z,81.31
2022-09-05T18:46:53.405Z,80.60
2022-09-05T18:50:22.346Z,82.76
2022-09-05T18:52:46.382Z,84.41
2022-09-05T18:55:31.703Z,84.66
2022-09-05T18:58:26.501Z,84.96
2022-09-05T19:00:58.593Z,85.28
2022-09-05T19:03:32.402Z,85.57
2022-09-05T19:06:36.776Z,86.26
2022-09-05T19:09:15.288Z,86.61
2022-09-05T19:12:32.026Z,88.16
2022-09-05T19:15:08.571Z,88.96
2022-09-05T19:17:47.010Z,89.24
2022-09-05T19:20:32.711Z,90.02
2022-09-05T19:23:10.211Z,90.78
2022-09-05T19:25:58.426Z,91.19
2022-09-05T19:36:45.456Z,91.29
2022-09-05T19:36:49.130Z,90.32
2022-09-05T19:37:08.025Z,91.02
2022-09-05T19:37:42.878Z,90.95
2022-09-05T19:46:15.445Z,91.37
2022-09-05T19:47:39.121Z,91.15
2022-09-05T19:47:40.605Z,90.66
2022-09-05T19:49:18.028Z,90.31
2022-09-05T19:51:47.405Z,91.37
2022-09-05T19:54:28.196Z,90.84
2022-09-05T19:57:05.986Z,91.15
2022-09-05T19:59:44.554Z,90.37
2022-09-05T20:02:36.168Z,87.01
2022-09-05T20:05:11.666Z,85.60
2022-09-05T20:07:53.972Z,84.17
2022-09-05T20:10:28.387Z,85.09
2022-09-05T20:12:58.735Z,84.95
2022-09-05T20:15:44.583Z,86.56
2022-09-05T20:18:34.238Z,87.18
2022-09-05T20:21:14.437Z,87.65
2022-09-05T20:23:50.494Z,87.53
2022-09-05T20:26:34.028Z,88.15
2022-09-05T20:29:10.397Z,88.87
2022-09-05T20:31:40.301Z,88.53
2022-09-05T20:35:36.457Z,89.94
2022-09-05T20:43:07.829Z,89.62
2022-09-05T20:43:15.706Z,89.93
2022-09-05T20:43:37.888Z,90.16
2022-09-05T20:47:12.277Z,90.12
2022-09-05T20:54:07.983Z,90.79
2022-09-05T20:54:20.748Z,90.64
2022-09-05T20:54:55.029Z,90.39
2022-09-05T20:57:33.423Z,89.33
2022-09-05T21:00:19.582Z,89.23
2022-09-05T21:03:09.095Z,88.30
2022-09-05T21:05:44.782Z,89.78
2022-09-05T21:08:38.806Z,89.69
2022-09-05T21:11:10.457Z,89.48
2022-09-05T21:13:48.809Z,90.14
2022-09-05T21:16:30.469Z,90.49
2022-09-05T21:19:01.735Z,92.10
2022-09-05T21:21:36.275Z,92.52
2022-09-05T21:24:17.360Z,94.61
2022-09-05T21:26:52.694Z,94.14
2022-09-05T21:29:33.622Z,94.96
2022-09-05T21:32:10.911Z,95.87
2022-09-05T21:34:52.729Z,94.79
2022-09-05T21:37:25.325Z,96.43
2022-09-05T21:39:59.936Z,97.31
2022-09-05T21:47:33.029Z,98.83
2022-09-05T21:47:40.639Z,98.70
2022-09-05T21:48:16.926Z,96.94
2022-09-05T21:50:58.152Z,96.25
2022-09-05T21:57:32.960Z,95.76
2022-09-05T21:59:27.320Z,93.93
2022-09-05T21:59:36.789Z,92.80
2022-09-05T22:02:11.255Z,91.83
2022-09-05T22:04:54.698Z,91.47
2022-09-05T22:07:32.760Z,91.09
2022-09-05T22:10:13.709Z,91.14
2022-09-05T22:12:44.598Z,90.58
2022-09-05T22:15:27.351Z,91.19
2022-09-05T22:18:17.069Z,91.07
2022-09-05T22:21:33.334Z,90.39
2022-09-05T22:23:48.378Z,89.56
2022-09-05T22:26:19.009Z,89.72
2022-09-05T22:28:50.276Z,91.42
2022-09-05T22:31:22.717Z,91.98
2022-09-05T22:33:51.463Z,92.23
2022-09-05T22:36:25.913Z,92.87
2022-09-05T22:38:58.190Z,92.88
2022-09-05T22:41:30.282Z,92.61
2022-09-05T22:44:04.254Z,93.59
2022-09-05T22:46:43.189Z,93.43
2022-09-05T22:49:13.725Z,95.91
2022-09-05T22:51:49.800Z,98.46
2022-09-05T22:54:17.872Z,100.00
2022-09-05T22:56:48.543Z,99.22
2022-09-05T22:59:20.637Z,98.77
2022-09-05T23:01:51.548Z,97.57
2022-09-05T23:04:28.316Z,98.17
2022-09-05T23:07:04.421Z,99.47
2022-09-05T23:09:36.528Z,98.87
2022-09-05T23:12:08.369Z,98.81
2022-09-05T23:14:41.947Z,98.34
2022-09-05T23:17:12.499Z,98.05
2022-09-05T23:19:42.088Z,96.63
2022-09-05T23:22:18.534Z,99.31
2022-09-05T23:24:53.566Z,98.51
2022-09-05T23:27:31.819Z,98.57
2022-09-05T23:30:00.491Z,98.05
2022-09-05T23:32:31.343Z,96.63
2022-09-05T23:35:06.450Z,96.74
2022-09-05T23:37:38.610Z,96.43
2022-09-05T23:40:08.156Z,95.93
2022-09-05T23:42:42.369Z,95.98
2022-09-05T23:45:12.364Z,97.10
2022-09-05T23:47:47.241Z,97.24
2022-09-05T23:50:23.156Z,97.79
2022-09-05T23:52:51.347Z,96.07
2022-09-05T23:55:23.719Z,98.54
2022-09-05T23:58:02.011Z,99.56
